createdAt,value
2022-10-11T00:00:58.637Z,94063.00
2022-10-11T00:03:26.502Z,94048.37
2022-10-11T00:05:56.648Z,94061.19
2022-10-11T00:08:24.028Z,94059.16
2022-10-11T00:11:00.128Z,94063.22
2022-10-11T00:13:28.222Z,94068.47
2022-10-11T00:15:56.800Z,94058.69
2022-10-11T00:18:24.815Z,94060.16
2022-10-11T00:21:02.972Z,94058.94
2022-10-11T00:23:30.766Z,94055.75
2022-10-11T00:26:04.024Z,94045.03
2022-10-11T00:28:33.211Z,94051.97
2022-10-11T00:31:01.297Z,94049.13
2022-10-11T00:33:29.127Z,94045.12
2022-10-11T00:35:59.949Z,94047.44
2022-10-11T00:38:27.589Z,94048.00
2022-10-11T00:40:55.118Z,94042.97
2022-10-11T00:43:26.317Z,94040.22
2022-10-11T00:45:56.746Z,94043.75
2022-10-11T00:48:36.737Z,94043.75
2022-10-11T00:51:11.833Z,94043.66
2022-10-11T00:53:40.111Z,94042.19
2022-10-11T00:56:14.910Z,94044.59
2022-10-11T00:58:43.765Z,94036.69
2022-10-11T01:01:11.715Z,94043.31
2022-10-11T01:03:40.819Z,94036.78
2022-10-11T01:06:09.270Z,94027.09
2022-10-11T01:08:38.217Z,94011.38
2022-10-11T01:11:06.531Z,94022.19
2022-10-11T01:13:52.633Z,94025.03
2022-10-11T01:16:27.206Z,94021.53
2022-10-11T01:19:02.098Z,94015.91
2022-10-11T01:21:43.325Z,94014.53
2022-10-11T01:24:28.773Z,94014.97
2022-10-11T01:27:25.591Z,94025.28
2022-10-11T01:30:05.174Z,94022.53
2022-10-11T01:32:45.386Z,94019.91
2022-10-11T01:36:01.570Z,94012.16
2022-10-11T01:38:50.794Z,94019.13
2022-10-11T01:41:28.478Z,94016.25
2022-10-11T01:44:00.771Z,94014.31
2022-10-11T01:46:29.814Z,94018.34
2022-10-11T01:49:00.580Z,94022.66
2022-10-11T01:51:33.388Z,94020.50
2022-10-11T01:54:18.925Z,94022.34
2022-10-11T01:57:04.922Z,94023.00
2022-10-11T01:59:57.359Z,94021.16
2022-10-11T02:02:45.723Z,94009.06
2022-10-11T02:05:23.727Z,94012.38
2022-10-11T02:08:20.317Z,94009.16
2022-10-11T02:11:01.004Z,94015.91
2022-10-11T02:13:34.460Z,94012.56
2022-10-11T02:16:07.081Z,94010.19
2022-10-11T02:18:39.995Z,94014.31
2022-10-11T02:21:11.938Z,94017.59
2022-10-11T02:23:48.406Z,94022.62
2022-10-11T02:26:18.840Z,94002.91
2022-10-11T02:28:47.049Z,93999.16
2022-10-11T02:31:17.809Z,94003.81
2022-10-11T02:33:52.722Z,93999.03
2022-10-11T02:36:29.550Z,94003.03
2022-10-11T02:39:05.653Z,94000.59
2022-10-11T02:41:39.451Z,93995.50
2022-10-11T02:44:13.278Z,93992.06
2022-10-11T02:46:43.611Z,93990.47
2022-10-11T02:49:13.255Z,93998.00
2022-10-11T02:51:42.543Z,93989.09
2022-10-11T02:54:10.219Z,93991.59
2022-10-11T02:56:37.976Z,93992.75
2022-10-11T02:59:05.481Z,93990.00
2022-10-11T03:01:33.079Z,93975.28
2022-10-11T03:04:01.076Z,93978.38
2022-10-11T03:06:28.502Z,93975.41
2022-10-11T03:08:55.894Z,93978.38
2022-10-11T03:11:26.483Z,93988.41
2022-10-11T03:13:53.939Z,93987.50
2022-10-11T03:16:21.631Z,93973.91
2022-10-11T03:18:49.446Z,93974.84
2022-10-11T03:21:16.912Z,93971.50
2022-10-11T03:23:44.382Z,93961.38
2022-10-11T03:26:12.222Z,93969.81
2022-10-11T03:28:39.779Z,93977.81
2022-10-11T03:31:07.259Z,93969.16
2022-10-11T03:33:35.111Z,93970.63
2022-10-11T03:36:03.045Z,93974.03
2022-10-11T03:38:30.857Z,93967.97
2022-10-11T03:40:58.636Z,93963.53
2022-10-11T03:43:26.437Z,93963.44
2022-10-11T03:45:54.002Z,93969.03
2022-10-11T03:48:22.518Z,93964.13
2022-10-11T03:50:50.286Z,93960.69
2022-10-11T03:53:17.858Z,93960.72
2022-10-11T03:55:45.961Z,93949.78
2022-10-11T03:58:13.383Z,93953.38
2022-10-11T04:00:40.956Z,93958.88
2022-10-11T04:03:08.933Z,93956.59
2022-10-11T04:05:36.337Z,93961.16
2022-10-11T04:08:22.673Z,93955.81
2022-10-11T04:10:50.487Z,93948.81
2022-10-11T04:13:18.173Z,93953.97
2022-10-11T04:15:47.104Z,93952.00
2022-10-11T04:18:14.954Z,93956.13
2022-10-11T04:20:42.923Z,93956.59
2022-10-11T04:23:11.083Z,93956.13
2022-10-11T04:25:39.849Z,93952.81
2022-10-11T04:28:09.236Z,93952.81
2022-10-11T04:30:36.907Z,93958.53
2022-10-11T04:33:04.810Z,93956.59
2022-10-11T04:35:32.378Z,93964.47
2022-10-11T04:37:59.879Z,93956.16
2022-10-11T04:40:27.909Z,93961.84
2022-10-11T04:42:55.490Z,93960.38
2022-10-11T04:45:22.949Z,93963.44
2022-10-11T04:47:50.763Z,93956.03
2022-10-11T04:50:18.740Z,93962.72
2022-10-11T04:52:46.221Z,93958.53
2022-10-11T04:55:14.041Z,93958.28
2022-10-11T04:57:41.531Z,93957.25
2022-10-11T05:00:09.733Z,93957.28
2022-10-11T05:02:37.478Z,93964.22
2022-10-11T05:05:05.300Z,93959.44
2022-10-11T05:07:32.793Z,93963.31
2022-10-11T05:10:00.686Z,93963.19
2022-10-11T05:12:28.190Z,93964.22
2022-10-11T05:14:55.683Z,93961.25
2022-10-11T05:17:23.583Z,93957.37
2022-10-11T05:19:50.990Z,93958.63
2022-10-11T05:22:18.731Z,93967.53
2022-10-11T05:24:46.550Z,93972.09
2022-10-11T05:27:13.983Z,93963.44
2022-10-11T05:29:41.444Z,93967.44
2022-10-11T05:32:09.267Z,93978.13
2022-10-11T05:34:36.672Z,93973.34
2022-10-11T05:37:04.129Z,93973.47
2022-10-11T05:39:32.561Z,93963.09
2022-10-11T05:42:00.037Z,93976.47
2022-10-11T05:44:27.549Z,93980.19
2022-10-11T05:46:55.407Z,93987.94
2022-10-11T05:49:22.974Z,93976.31
2022-10-11T05:51:50.422Z,93986.81
2022-10-11T05:54:18.205Z,93990.34
2022-10-11T05:56:45.718Z,93982.00
2022-10-11T05:59:13.143Z,93984.75
2022-10-11T06:01:41.003Z,93984.78
2022-10-11T06:04:08.937Z,93980.69
2022-10-11T06:06:36.358Z,93984.34
2022-10-11T06:09:03.823Z,93975.19
2022-10-11T06:11:31.828Z,93972.09
2022-10-11T06:13:59.697Z,93969.94
2022-10-11T06:16:27.672Z,93958.38
2022-10-11T06:18:57.535Z,93948.41
2022-10-11T06:21:25.516Z,93938.97
2022-10-11T06:23:59.881Z,93936.97
2022-10-11T06:26:29.591Z,93940.22
2022-10-11T06:28:57.435Z,93947.78
2022-10-11T06:31:25.130Z,93956.91
2022-10-11T06:33:53.027Z,93956.13
2022-10-11T06:36:20.609Z,93963.41
2022-10-11T06:38:48.210Z,93974.81
2022-10-11T06:41:22.014Z,93979.03
2022-10-11T06:43:52.309Z,93980.31
2022-10-11T06:46:22.498Z,93987.06
2022-10-11T06:48:50.746Z,93984.91
2022-10-11T06:51:21.112Z,93993.34
2022-10-11T06:53:55.619Z,93996.09
2022-10-11T06:56:23.658Z,94003.97
2022-10-11T06:58:51.651Z,93993.09
2022-10-11T07:01:21.531Z,93990.38
2022-10-11T07:03:50.833Z,93984.09
2022-10-11T07:06:21.330Z,93983.62
2022-10-11T07:08:49.278Z,93982.94
2022-10-11T07:11:20.348Z,93989.34
2022-10-11T07:13:57.193Z,93988.41
2022-10-11T07:16:25.728Z,93983.25
2022-10-11T07:19:00.488Z,93985.13
2022-10-11T07:21:30.204Z,93985.44
2022-10-11T07:23:58.458Z,93982.38
2022-10-11T07:26:26.003Z,93987.59
2022-10-11T07:28:53.798Z,93989.88
2022-10-11T07:31:24.738Z,93991.62
2022-10-11T07:33:52.747Z,93988.75
2022-10-11T07:36:20.993Z,93981.06
2022-10-11T07:38:50.271Z,93981.16
2022-10-11T07:41:17.952Z,93979.47
2022-10-11T07:43:48.025Z,93976.88
2022-10-11T07:46:19.681Z,93978.97
2022-10-11T07:48:47.363Z,93977.25
2022-10-11T07:51:18.528Z,93976.53
2022-10-11T07:53:49.063Z,93976.59
2022-10-11T07:56:22.465Z,93972.44
2022-10-11T07:58:55.992Z,93973.28
2022-10-11T08:01:25.051Z,93978.97
2022-10-11T08:03:55.212Z,93984.59
2022-10-11T08:06:30.676Z,93989.16
2022-10-11T08:09:00.750Z,93993.97
2022-10-11T08:11:34.870Z,93998.44
2022-10-11T08:14:08.544Z,93998.88
2022-10-11T08:16:36.669Z,93998.31
2022-10-11T08:19:05.167Z,94005.84
2022-10-11T08:21:33.074Z,94011.41
2022-10-11T08:24:03.060Z,94002.97
2022-10-11T08:26:31.868Z,94007.72
2022-10-11T08:29:04.239Z,94010.25
2022-10-11T08:31:33.058Z,94013.09
2022-10-11T08:34:00.843Z,94003.41
2022-10-11T08:36:28.233Z,94004.81
2022-10-11T08:38:56.039Z,94007.38
2022-10-11T08:41:46.236Z,94009.22
2022-10-11T08:45:05.906Z,94002.25
2022-10-11T08:47:36.230Z,94004.47
2022-10-11T08:50:07.098Z,93997.88
2022-10-11T08:52:46.598Z,94000.16
2022-10-11T08:55:37.484Z,93997.00
2022-10-11T08:58:05.531Z,93993.28
2022-10-11T09:00:38.328Z,93996.75
2022-10-11T09:03:28.758Z,93993.22
2022-10-11T09:05:59.673Z,93989.81
2022-10-11T09:08:42.923Z,93985.31
2022-10-11T09:11:39.923Z,93984.75
2022-10-11T09:14:22.598Z,93986.03
2022-10-11T09:16:56.127Z,93981.81
2022-10-11T09:20:02.301Z,93983.28
2022-10-11T09:22:43.813Z,93977.13
2022-10-11T09:25:16.991Z,93981.50
2022-10-11T09:28:03.975Z,93979.13
2022-10-11T09:30:33.511Z,93982.41
2022-10-11T09:33:29.193Z,93983.19
2022-10-11T09:35:57.649Z,93985.75
2022-10-11T09:38:36.846Z,93992.31
2022-10-11T09:41:29.123Z,93989.69
2022-10-11T09:43:56.967Z,93987.00
2022-10-11T09:46:41.748Z,93980.19
2022-10-11T09:49:13.413Z,93971.72
2022-10-11T09:51:50.623Z,93975.69
2022-10-11T09:54:22.407Z,93975.62
2022-10-11T09:56:49.796Z,93976.31
2022-10-11T09:59:29.427Z,93976.09
2022-10-11T10:02:30.490Z,93974.00
2022-10-11T10:05:02.808Z,93968.44
2022-10-11T10:07:32.703Z,93966.97
2022-10-11T10:10:29.262Z,93967.56
2022-10-11T10:12:59.598Z,93965.47
2022-10-11T10:15:45.323Z,93959.97
2022-10-11T10:18:37.826Z,93964.66
2022-10-11T10:21:10.539Z,93962.34
2022-10-11T10:23:38.141Z,93955.69
2022-10-11T10:26:20.239Z,93952.09
2022-10-11T10:29:02.123Z,93950.94
2022-10-11T10:31:55.326Z,93951.94
2022-10-11T10:34:35.393Z,93945.06
2022-10-11T10:37:13.286Z,93943.31
2022-10-11T10:40:14.630Z,93946.31
2022-10-11T10:42:42.572Z,93948.84
2022-10-11T10:45:21.565Z,93941.37
2022-10-11T10:48:20.388Z,93938.25
2022-10-11T10:51:17.558Z,93938.81
2022-10-11T10:53:52.618Z,93939.03
2022-10-11T10:56:27.823Z,93936.34
2022-10-11T10:59:14.255Z,93935.94
2022-10-11T11:02:06.745Z,93937.38
2022-10-11T11:04:57.155Z,93934.63
2022-10-11T11:07:32.313Z,93931.94
2022-10-11T11:09:59.927Z,93931.91
2022-10-11T11:12:36.426Z,93926.53
2022-10-11T11:15:14.127Z,93918.31
2022-10-11T11:18:01.549Z,93918.19
2022-10-11T11:20:43.997Z,93911.75
2022-10-11T11:23:54.891Z,93911.31
2022-10-11T11:26:51.635Z,93900.00
2022-10-11T11:29:50.794Z,93908.22
2022-10-11T11:32:55.774Z,93902.41
2022-10-11T11:35:41.459Z,93894.88
2022-10-11T11:38:18.713Z,93903.53
2022-10-11T11:40:55.336Z,93901.47
2022-10-11T11:43:34.077Z,93897.38
2022-10-11T11:46:17.824Z,93896.75
2022-10-11T11:48:47.369Z,93897.78
2022-10-11T11:51:31.325Z,93895.28
2022-10-11T11:54:19.549Z,93892.53
2022-10-11T11:57:07.916Z,93902.41
2022-10-11T11:59:41.336Z,93897.88
2022-10-11T12:02:33.174Z,93897.00
2022-10-11T12:05:01.985Z,93889.56
2022-10-11T12:07:30.225Z,93896.28
2022-10-11T12:10:25.240Z,93893.31
2022-10-11T12:13:32.205Z,93895.00
2022-10-11T12:16:01.733Z,93887.31
2022-10-11T12:18:30.987Z,93894.66
2022-10-11T12:21:24.772Z,93899.28
2022-10-11T12:23:55.158Z,93889.84
2022-10-11T12:26:28.713Z,93895.50
2022-10-11T12:29:33.870Z,93899.25
2022-10-11T12:32:01.217Z,93899.19
2022-10-11T12:34:37.845Z,93895.94
2022-10-11T12:37:20.525Z,93890.63
2022-10-11T12:39:55.411Z,93894.84
2022-10-11T12:42:29.394Z,93897.53
2022-10-11T12:45:12.907Z,93890.25
2022-10-11T12:47:46.207Z,93887.41
2022-10-11T12:50:29.114Z,93886.69
2022-10-11T12:53:38.594Z,93887.84
2022-10-11T12:56:34.109Z,93883.38
2022-10-11T12:59:03.929Z,93887.84
2022-10-11T13:01:52.727Z,93879.47
2022-10-11T13:04:29.407Z,93880.75
2022-10-11T13:07:06.954Z,93874.44
2022-10-11T13:09:40.108Z,93875.75
2022-10-11T13:12:19.426Z,93878.47
2022-10-11T13:14:58.952Z,93881.00
2022-10-11T13:17:37.312Z,93881.00
2022-10-11T13:20:18.375Z,93884.72
2022-10-11T13:22:53.286Z,93880.22
2022-10-11T13:25:24.016Z,93875.72
2022-10-11T13:27:55.829Z,93874.41
2022-10-11T13:30:28.699Z,93876.72
2022-10-11T13:32:57.705Z,93869.59
2022-10-11T13:35:35.479Z,93874.31
2022-10-11T13:38:05.298Z,93869.00
2022-10-11T13:40:32.717Z,93872.19
2022-10-11T13:43:00.551Z,93870.56
2022-10-11T13:45:32.938Z,93873.06
2022-10-11T13:48:00.587Z,93870.84
2022-10-11T13:50:34.743Z,93877.12
2022-10-11T13:53:23.755Z,93872.47
2022-10-11T13:55:56.949Z,93867.88
2022-10-11T13:58:32.602Z,93871.16
2022-10-11T14:01:04.031Z,93875.09
2022-10-11T14:03:43.769Z,93866.09
2022-10-11T14:06:11.464Z,93861.38
2022-10-11T14:08:52.117Z,93862.41
2022-10-11T14:11:36.579Z,93853.56
2022-10-11T14:14:30.691Z,93859.63
2022-10-11T14:17:04.614Z,93855.44
2022-10-11T14:19:32.469Z,93863.56
2022-10-11T14:22:00.139Z,93857.25
2022-10-11T14:24:27.541Z,93863.22
2022-10-11T14:26:56.488Z,93856.34
2022-10-11T14:29:29.644Z,93858.03
2022-10-11T14:32:29.435Z,93863.66
2022-10-11T14:34:57.173Z,93866.59
2022-10-11T14:37:25.771Z,93865.78
2022-10-11T14:39:53.159Z,93863.78
2022-10-11T14:42:20.571Z,93852.94
2022-10-11T14:44:48.357Z,93854.06
2022-10-11T14:47:16.999Z,93854.94
2022-10-11T14:49:45.387Z,93851.94
2022-10-11T14:52:14.239Z,93862.56
2022-10-11T14:54:41.990Z,93862.41
2022-10-11T14:57:12.088Z,93859.97
2022-10-11T14:59:40.020Z,93857.87
2022-10-11T15:02:11.279Z,93869.53
2022-10-11T15:04:38.632Z,93872.91
2022-10-11T15:07:06.571Z,93868.91
2022-10-11T15:09:34.202Z,93871.34
2022-10-11T15:12:01.629Z,93864.66
2022-10-11T15:14:29.398Z,93855.56
2022-10-11T15:16:56.808Z,93856.69
2022-10-11T15:19:25.722Z,93856.34
2022-10-11T15:21:53.835Z,93857.19
2022-10-11T15:24:22.717Z,93861.22
2022-10-11T15:26:50.593Z,93860.56
2022-10-11T15:29:19.076Z,93864.00
2022-10-11T15:31:46.729Z,93859.13
2022-10-11T15:34:14.437Z,93859.34
2022-10-11T15:36:42.154Z,93856.94
2022-10-11T15:39:39.174Z,93866.88
2022-10-11T15:42:07.033Z,93863.72
2022-10-11T15:44:34.523Z,93867.66
2022-10-11T15:47:01.871Z,93863.13
2022-10-11T15:49:29.734Z,93867.09
2022-10-11T15:51:57.352Z,93865.31
2022-10-11T15:54:24.973Z,93875.69
2022-10-11T15:56:52.725Z,93872.16
2022-10-11T15:59:20.122Z,93878.00
2022-10-11T16:01:47.551Z,93876.31
2022-10-11T16:04:15.399Z,93872.19
2022-10-11T16:06:42.845Z,93876.44
2022-10-11T16:09:10.334Z,93879.50
2022-10-11T16:11:38.053Z,93882.75
2022-10-11T16:14:06.340Z,93876.91
2022-10-11T16:16:33.673Z,93885.81
2022-10-11T16:19:01.452Z,93886.13
2022-10-11T16:21:28.790Z,93892.38
2022-10-11T16:23:56.150Z,93886.81
2022-10-11T16:26:24.121Z,93892.44
2022-10-11T16:28:51.575Z,93887.16
2022-10-11T16:31:21.086Z,93890.91
2022-10-11T16:33:50.371Z,93889.81
2022-10-11T16:36:35.889Z,93885.34
2022-10-11T16:39:13.249Z,93895.56
2022-10-11T16:41:41.935Z,93897.78
2022-10-11T16:44:20.123Z,93889.13
2022-10-11T16:46:49.167Z,93894.97
2022-10-11T16:49:19.232Z,93898.50
2022-10-11T16:51:46.660Z,93904.34
2022-10-11T16:54:19.291Z,93902.22
2022-10-11T16:56:51.478Z,93902.91
2022-10-11T16:59:19.887Z,93906.41
2022-10-11T17:01:47.706Z,93911.16
2022-10-11T17:04:15.408Z,93915.72
2022-10-11T17:06:44.130Z,93913.50
2022-10-11T17:09:11.853Z,93912.72
2022-10-11T17:11:39.458Z,93915.28
2022-10-11T17:14:07.899Z,93912.28
2022-10-11T17:16:35.865Z,93915.44
2022-10-11T17:19:03.652Z,93908.09
2022-10-11T17:21:31.241Z,93904.25
2022-10-11T17:23:58.977Z,93910.78
2022-10-11T17:26:28.339Z,93904.13
2022-10-11T17:28:58.341Z,93904.63
2022-10-11T17:31:28.125Z,93904.06
2022-10-11T17:33:57.810Z,93902.34
2022-10-11T17:36:32.051Z,93908.94
2022-10-11T17:39:01.073Z,93912.94
2022-10-11T17:41:32.022Z,93911.97
2022-10-11T17:44:01.274Z,93918.50
2022-10-11T17:46:32.689Z,93918.25
2022-10-11T17:49:04.946Z,93922.41
2022-10-11T17:51:33.724Z,93916.66
2022-10-11T17:54:03.275Z,93918.31
2022-10-11T17:56:36.623Z,93923.00
2022-10-11T17:59:05.981Z,93928.78
2022-10-11T18:01:36.099Z,93925.47
2022-10-11T18:04:06.165Z,93919.56
2022-10-11T18:06:39.514Z,93919.66
2022-10-11T18:09:07.868Z,93927.56
2022-10-11T18:11:36.060Z,93929.53
2022-10-11T18:14:05.331Z,93928.41
2022-10-11T18:16:34.009Z,93930.59
2022-10-11T18:19:03.732Z,93930.41
2022-10-11T18:21:34.648Z,93927.78
2022-10-11T18:24:08.326Z,93929.88
2022-10-11T18:26:35.654Z,93932.25
2022-10-11T18:29:05.588Z,93930.81
2022-10-11T18:31:37.047Z,93933.59
2022-10-11T18:34:08.483Z,93930.81
2022-10-11T18:36:38.451Z,93934.16
2022-10-11T18:39:08.756Z,93927.56
2022-10-11T18:41:40.277Z,93925.00
2022-10-11T18:44:09.731Z,93933.34
2022-10-11T18:46:37.097Z,93932.44
2022-10-11T18:49:04.533Z,93924.69
2022-10-11T18:51:38.447Z,93930.34
2022-10-11T18:54:07.489Z,93927.16
2022-10-11T18:56:37.283Z,93933.53
2022-10-11T18:59:05.352Z,93926.41
2022-10-11T19:01:38.448Z,93935.44
2022-10-11T19:04:09.299Z,93932.47
2022-10-11T19:06:43.309Z,93936.09
2022-10-11T19:09:13.652Z,93935.00
2022-10-11T19:11:41.916Z,93930.88
2022-10-11T19:14:12.472Z,93936.69
2022-10-11T19:16:42.573Z,93928.56
2022-10-11T19:19:11.319Z,93924.91
2022-10-11T19:21:39.160Z,93930.94
2022-10-11T19:24:07.277Z,93932.03
2022-10-11T19:26:37.200Z,93926.78
2022-10-11T19:29:07.954Z,93933.56
2022-10-11T19:31:43.588Z,93933.16
2022-10-11T19:34:12.092Z,93932.22
2022-10-11T19:36:42.807Z,93931.78
2022-10-11T19:39:18.027Z,93932.81
2022-10-11T19:41:46.690Z,93931.78
2022-10-11T19:44:14.709Z,93928.84
2022-10-11T19:46:51.546Z,93926.16
2022-10-11T19:49:22.846Z,93925.59
2022-10-11T19:51:50.552Z,93929.03
2022-10-11T19:54:18.563Z,93934.63
2022-10-11T19:56:46.446Z,93931.75
2022-10-11T19:59:14.816Z,93928.06
2022-10-11T20:01:45.527Z,93933.78
2022-10-11T20:04:39.603Z,93934.59
2022-10-11T20:07:03.470Z,93942.56
2022-10-11T20:09:31.303Z,93941.44
2022-10-11T20:11:59.258Z,93947.03
2022-10-11T20:14:26.932Z,93939.69
2022-10-11T20:16:54.637Z,93945.44
2022-10-11T20:19:25.088Z,93945.56
2022-10-11T20:21:55.540Z,93946.69
2022-10-11T20:24:22.981Z,93948.91
2022-10-11T20:26:50.297Z,93944.28
2022-10-11T20:29:18.269Z,93945.56
2022-10-11T20:31:45.671Z,93947.50
2022-10-11T20:34:13.438Z,93945.44
2022-10-11T20:36:42.209Z,93949.13
2022-10-11T20:39:11.163Z,93952.34
2022-10-11T20:41:42.895Z,93956.31
2022-10-11T20:44:13.304Z,93955.28
2022-10-11T20:46:40.740Z,93954.25
2022-10-11T20:49:10.908Z,93957.00
2022-10-11T20:51:41.749Z,93950.66
2022-10-11T20:54:10.216Z,93955.66
2022-10-11T20:56:38.114Z,93956.16
2022-10-11T20:59:06.811Z,93955.44
2022-10-11T21:01:37.641Z,93950.56
2022-10-11T21:04:06.469Z,93951.00
2022-10-11T21:06:34.131Z,93947.94
2022-10-11T21:09:01.806Z,93946.09
2022-10-11T21:11:31.446Z,93950.81
2022-10-11T21:14:01.723Z,93950.69
2022-10-11T21:16:29.579Z,93954.22
2022-10-11T21:18:58.711Z,93951.13
2022-10-11T21:21:27.617Z,93949.94
2022-10-11T21:24:00.558Z,93957.00
2022-10-11T21:26:29.569Z,93949.63
2022-10-11T21:28:59.328Z,93954.03
2022-10-11T21:31:32.700Z,93948.63
2022-10-11T21:34:03.399Z,93947.84
2022-10-11T21:36:30.645Z,93938.94
2022-10-11T21:38:57.950Z,93944.56
2022-10-11T21:41:26.968Z,93939.41
2022-10-11T21:43:54.335Z,93944.69
2022-10-11T21:46:47.442Z,93948.31
2022-10-11T21:49:17.890Z,93948.63
2022-10-11T21:51:45.651Z,93945.69
2022-10-11T21:54:12.971Z,93941.94
2022-10-11T21:56:42.191Z,93946.25
2022-10-11T21:59:12.390Z,93948.34
2022-10-11T22:01:41.919Z,93947.00
2022-10-11T22:04:11.152Z,93942.25
2022-10-11T22:06:39.064Z,93935.16
2022-10-11T22:09:07.483Z,93938.94
2022-10-11T22:11:35.649Z,93947.28
2022-10-11T22:14:03.750Z,93946.00
2022-10-11T22:16:32.856Z,93944.38
2022-10-11T22:19:00.547Z,93939.56
2022-10-11T22:21:28.131Z,93937.84
2022-10-11T22:23:55.502Z,93936.81
2022-10-11T22:26:32.672Z,93941.03
2022-10-11T22:29:00.658Z,93937.56
2022-10-11T22:31:29.490Z,93936.59
2022-10-11T22:33:59.443Z,93943.47
2022-10-11T22:36:30.646Z,93946.03
2022-10-11T22:38:59.128Z,93938.97
2022-10-11T22:41:26.601Z,93936.47
2022-10-11T22:43:54.003Z,93943.16
2022-10-11T22:46:21.684Z,93940.38
2022-10-11T22:48:49.072Z,93942.78
2022-10-11T22:51:16.973Z,93942.53
2022-10-11T22:53:45.042Z,93947.63
2022-10-11T22:56:12.467Z,93943.00
2022-10-11T22:58:39.952Z,93949.94
2022-10-11T23:01:09.854Z,93945.81
2022-10-11T23:03:37.659Z,93946.50
2022-10-11T23:06:05.531Z,93945.69
2022-10-11T23:08:33.248Z,93952.69
2022-10-11T23:11:07.603Z,93945.34
2022-10-11T23:13:35.703Z,93942.72
2022-10-11T23:16:08.284Z,93948.38
2022-10-11T23:18:36.179Z,93952.97
2022-10-11T23:21:04.187Z,93948.03
2022-10-11T23:23:31.841Z,93948.22
2022-10-11T23:26:16.043Z,93940.75
2022-10-11T23:28:44.347Z,93945.75
2022-10-11T23:31:16.747Z,93944.03
2022-10-11T23:33:45.781Z,93943.81
2022-10-11T23:36:15.616Z,93943.84
2022-10-11T23:38:43.221Z,93939.75
2022-10-11T23:41:10.694Z,93945.59
2022-10-11T23:43:38.569Z,93942.06
2022-10-11T23:46:05.864Z,93950.88
2022-10-11T23:48:33.226Z,93948.56
2022-10-11T23:51:01.058Z,93951.69
2022-10-11T23:53:28.557Z,93948.38
2022-10-11T23:55:56.011Z,93944.16
2022-10-11T23:58:23.885Z,93939.56
